MDT,Max TemperatureF,Mean TemperatureF,Min TemperatureF,Max Dew PointF,MeanDew PointF,Min DewpointF,Max Humidity, Mean Humidity, Min Humidity, Max Sea Level PressureIn, Mean Sea Level PressureIn, Min Sea Level PressureIn, Max VisibilityMiles, Mean VisibilityMiles, Min VisibilityMiles, Max Wind SpeedMPH, Mean Wind SpeedMPH, Max Gust SpeedMPH,PrecipitationIn, CloudCover, Events, WindDirDegrees
2012-10-1,68,60,51,45,37,32,76,48,26,30.37,30.29,30.20,20,14,10,15,8,21,0.00,4,Rain,350
2012-10-2,82,64,46,39,29,16,71,39,8,30.20,30.06,29.94,20,11,10,16,4,18,0.00,0,,243
2012-10-3,80,60,39,30,22,12,61,24,8,30.38,30.02,29.90,15,10,8,23,13,37,0.00,2,,277
2012-10-4,46,42,37,27,25,23,65,57,40,30.37,30.31,30.21,20,11,10,13,7,,0.00,7,,78
2012-10-5,68,49,30,34,28,23,100,73,26,30.29,30.21,30.16,20,10,2,17,8,,0.00,7,Rain-Snow,359
2012-10-6,37,34,32,32,30,27,100,89,70,30.29,30.23,30.18,15,8,0,10,4,,0.00,8,Rain-Snow,51
2012-10-7,53,40,26,28,20,5,93,58,14,30.23,30.15,30.04,20,11,10,9,4,,0.00,3,,215
2012-10-8,73,53,33,21,8,-9,60,28,4,30.05,29.98,29.86,20,11,10,28,8,39,0.00,1,,276
2012-10-9,60,48,37,34,26,3,75,52,10,30.22,30.05,29.89,20,13,10,20,7,29,0.00,4,,7
2012-10-10,59,48,37,37,33,30,87,66,36,30.18,30.12,30.01,20,10,8,7,4,,0.00,3,,317
2012-10-11,64,53,42,36,29,23,66,39,21,30.27,30.10,30.01,20,12,10,13,7,18,0.00,2,,296
2012-10-12,62,48,33,45,34,30,87,69,39,30.24,30.09,29.92,20,13,10,14,7,,0.00,3,Rain-Thunderstorm,329
2012-10-13,59,52,46,43,33,23,82,50,33,30.14,29.96,29.89,20,14,10,15,7,,0.00,5,Rain,314
2012-10-14,69,58,46,41,31,25,76,42,18,30.32,30.25,30.20,20,20,20,16,5,20,0.00,1,,235
2012-10-15,77,62,46,34,18,7,54,20,7,30.11,30.01,29.94,20,12,10,24,7,32,0.00,2,,249
2012-10-16,77,64,50,34,24,16,54,24,10,29.97,29.84,29.61,20,11,10,33,14,43,0.00,2,Rain,247
2012-10-17,57,48,39,27,6,-8,38,18,7,30.03,29.85,29.72,20,10,10,33,21,44,0.00,0,,285
2012-10-18,64,48,32,18,12,3,55,31,9,30.13,30.07,30.04,10,10,10,20,9,26,0.00,0,,72
2012-10-19,71,55,39,21,11,7,36,21,8,30.11,30.02,29.90,20,10,10,17,3,,0.00,2,,282
2012-10-20,73,66,59,18,11,5,19,13,8,29.92,29.85,29.74,10,10,10,21,7,30,0.00,3,,238
2012-10-21,68,60,48,36,18,9,58,23,14,29.95,29.85,29.78,20,10,10,16,7,,0.00,1,,288
2012-10-22,64,52,39,36,33,32,76,57,30,29.95,29.89,29.75,20,12,10,15,6,16,0.00,1,,333
2012-10-23,77,62,46,48,20,-9,54,32,4,29.95,29.77,29.71,20,10,10,18,6,30,0.00,2,,256
2012-10-24,50,40,30,39,30,27,100,63,46,30.07,29.93,29.79,20,8,1,17,7,30,0.00,7,Rain-Snow,10
2012-10-25,33,30,28,30,28,25,100,91,75,30.23,30.15,30.08,20,5,1,10,5,,0.00,8,Snow,52
2012-10-26,39,32,26,28,26,23,93,87,56,30.42,30.28,30.14,20,9,3,13,8,,0.00,6,Snow,350
2012-10-27,48,36,24,28,24,18,93,69,30,30.14,30.11,30.06,20,9,4,13,6,23,0.00,3,,322
2012-10-28,62,47,32,32,27,21,87,62,25,30.14,30.09,30.02,20,11,10,26,6,32,0.00,2,,279
2012-10-29,66,55,44,30,27,23,57,37,19,30.15,30.12,30.09,20,11,10,21,4,26,0.00,2,,273
2012-10-30,69,58,48,30,25,19,50,32,15,30.21,30.15,30.09,20,12,10,18,6,20,0.00,2,,312
2012-10-31,69,58,46,27,23,16,40,31,13,30.20,30.16,30.14,10,10,10,12,6,,0.00,2,,282